Hlavní strana
METAR-TAF:

METAR-TAF

Letiště :

Aalborg, Dánsko

zeměpisná šířka: 57-06N, zeměpisná délka: 009-51E, výška: 3 m

Aktuální stav počasí

Zpráva byla vytvořena před 35 minutami, v 07:20 UTC
Severní vítr 5 kt, proměnlivý mezi severozápadním a severovýchodním
Teplota 14°C
Vlhkost vzduchu 77%
Tlak 1026 hPa
Viditelnost 10 km a více

METAR: EKYT 250720Z AUTO 36005KT 320V040 9999 FEW016/// 14/10 Q1026

Čas: 09:55 (07:55 UTC)

Předpověď počasí

Zpráva byla vytvořena před 2 hodinami a 49 minutami, v 05:06 UTC
Předpověď platná od 25 v 06 UTC do 26 v 06 UTC
Severní vítr 8 kt
Viditelnost 10 km a více
Polojasno ve výšce 3000 ft
Změna
od 25 v 22 UTC do 25 v 24 UTC
Západní vítr 5 kt
Dočasný
od 25 v 22 UTC do 25 v 24 UTC
Přízemní mlha
Dočasný
od 26 v 00 UTC do 26 v 04 UTC
Viditelnost: 0400 m
chuchvalce mlhy

TAF: EKYT 250506Z 2506/2606 36008KT 9999 SCT030 BECMG 2522/2524 27005KT TEMPO 2522/2524 MIFG TEMPO 2600/2604 0400 BCFG

Stav a předpovědi počasí z více než 4 000 letišť (zprávy METAR a TAF).

Červené a žluté tečky na mapě představují dostupné meteorologické stanice.

Když kurzor umístíte na tečku, zobrazí se název stanice.

Pak kliknutím zobrazíte stav a předpověď počasí.

Chcete-li změnit mapu, kliknutím na zelené tlačítko se znaménkem +mapu přiblížíte, kliknutím na zelené tlačítko se znaménkem – mapu oddálíte a kliknutím na zelené šipky přejdete na sousední mapy.


METAR-TAF: